Time;durP1;ratioP1;P1;durP2;ratioP2;P2;SDS_P1;SDS_P2;PMS_P1;PMS_P2;Temp;Humidity;BMP_temperature;BMP_pressure;BME280_temperature;BME280_humidity;BME280_pressure;Samples;Min_cycle;Max_cycle;Signal;HPM_P1;HPM_P2
2022/09/05 00:02:24;;;;;;;0.00;0.00;;;19.40;99.90;;;;;;4990878;28;20200;-73
2022/09/05 00:04:56;;;;;;;0.00;0.00;;;19.40;99.90;;;;;;5007285;28;20274;-73
2022/09/05 00:07:34;;;;;;;0.00;0.00;;;19.30;99.90;;;;;;4997278;28;20216;-73
2022/09/05 00:10:14;;;;;;;0.00;0.00;;;19.20;99.90;;;;;;4994595;28;20228;-73
2022/09/05 00:12:42;;;;;;;0.00;0.00;;;19.20;99.90;;;;;;4999110;28;20340;-73
2022/09/05 00:15:22;;;;;;;0.00;0.00;;;19.20;99.90;;;;;;4997676;28;20224;-72
2022/09/05 00:18:22;;;;;;;0.00;0.00;;;19.20;99.90;;;;;;5000637;28;20220;-73
2022/09/05 00:20:58;;;;;;;0.00;0.00;;;19.10;99.90;;;;;;4980267;28;20569;-72
2022/09/05 00:23:43;;;;;;;0.00;0.00;;;19.00;99.90;;;;;;5004444;28;20192;-72
2022/09/05 00:26:23;;;;;;;0.00;0.00;;;19.00;99.90;;;;;;5006039;28;20272;-72
2022/09/05 00:29:02;;;;;;;0.00;0.00;;;19.00;99.90;;;;;;5012387;28;20224;-72
2022/09/05 00:31:41;;;;;;;0.00;0.00;;;19.00;99.90;;;;;;4988399;28;20210;-72
2022/09/05 00:34:21;;;;;;;0.00;0.00;;;19.00;99.90;;;;;;5006446;28;20220;-72
2022/09/05 00:36:52;;;;;;;0.00;0.00;;;19.00;99.90;;;;;;4989396;28;20209;-72
2022/09/05 00:39:25;;;;;;;0.00;0.00;;;18.90;99.90;;;;;;4999827;28;20197;-73
2022/09/05 00:41:56;;;;;;;0.00;0.00;;;18.90;99.90;;;;;;5013834;28;20294;-72
2022/09/05 00:44:26;;;;;;;0.00;0.00;;;18.90;99.90;;;;;;4995685;28;20236;-72
2022/09/05 00:47:01;;;;;;;0.00;0.00;;;18.90;99.90;;;;;;5001732;28;20211;-72
2022/09/05 00:49:36;;;;;;;0.00;0.00;;;18.90;99.90;;;;;;4988164;28;20262;-73
2022/09/05 00:52:10;;;;;;;0.00;0.00;;;18.90;99.90;;;;;;4992785;28;20288;-72
2022/09/05 00:54:58;;;;;;;0.00;0.00;;;19.00;99.90;;;;;;4997505;28;20239;-72
2022/09/05 00:57:46;;;;;;;0.00;0.00;;;18.90;99.90;;;;;;4994032;28;20258;-73
2022/09/05 01:00:16;;;;;;;0.07;0.07;;;18.90;99.90;;;;;;4994291;28;20219;-73
2022/09/05 01:03:08;;;;;;;0.00;0.00;;;18.90;99.90;;;;;;4991041;28;20208;-73
2022/09/05 01:05:52;;;;;;;0.00;0.00;;;18.90;99.90;;;;;;4995796;28;20324;-72
2022/09/05 01:08:36;;;;;;;0.00;0.00;;;18.90;99.90;;;;;;4994914;28;20258;-73
2022/09/05 01:11:11;;;;;;;0.00;0.00;;;18.90;99.90;;;;;;5004000;28;20207;-72
2022/09/05 01:13:45;;;;;;;0.00;0.00;;;18.90;99.90;;;;;;4999637;28;20224;-73
2022/09/05 01:16:22;;;;;;;0.00;0.00;;;18.80;99.90;;;;;;4988742;28;20231;-72
2022/09/05 01:18:59;;;;;;;0.00;0.00;;;18.80;99.90;;;;;;5007021;28;20216;-72
2022/09/05 01:21:59;;;;;;;0.00;0.00;;;18.80;99.90;;;;;;4987464;28;20228;-73
2022/09/05 01:24:38;;;;;;;0.00;0.00;;;18.80;99.90;;;;;;4993965;28;20232;-73
2022/09/05 01:27:39;;;;;;;0.00;0.00;;;18.80;99.90;;;;;;5008353;28;20251;-73
2022/09/05 01:30:10;;;;;;;0.00;0.00;;;18.80;99.90;;;;;;5002565;28;20657;-73
2022/09/05 01:32:43;;;;;;;0.00;0.00;;;18.70;99.90;;;;;;5004541;28;20280;-73
2022/09/05 01:35:36;;;;;;;0.00;0.00;;;18.70;99.90;;;;;;5012917;28;20228;-72
2022/09/05 01:38:10;;;;;;;0.00;0.00;;;18.60;99.90;;;;;;4989053;28;20205;-74
2022/09/05 01:40:48;;;;;;;0.00;0.00;;;18.70;99.90;;;;;;4990436;28;20200;-73
2022/09/05 01:43:26;;;;;;;0.00;0.00;;;18.60;99.90;;;;;;4994772;28;20208;-73
2022/09/05 01:46:00;;;;;;;0.00;0.00;;;18.60;99.90;;;;;;4998295;28;20220;-72
2022/09/05 01:48:34;;;;;;;0.00;0.00;;;18.60;99.90;;;;;;4981742;28;20214;-72
2022/09/05 01:51:14;;;;;;;0.10;0.10;;;18.60;99.90;;;;;;5005874;28;20207;-72
2022/09/05 01:53:48;;;;;;;0.00;0.00;;;18.70;99.90;;;;;;4994237;28;20259;-73
2022/09/05 01:56:39;;;;;;;0.00;0.00;;;18.70;99.90;;;;;;4997197;28;20238;-72
2022/09/05 01:59:19;;;;;;;0.00;0.00;;;18.70;99.90;;;;;;4990401;28;20659;-72
2022/09/05 02:02:12;;;;;;;0.00;0.00;;;18.70;99.90;;;;;;4991328;28;20204;-73
2022/09/05 02:05:02;;;;;;;0.00;0.00;;;18.70;99.90;;;;;;4989767;28;20224;-72
2022/09/05 02:07:37;;;;;;;0.00;0.00;;;18.70;99.90;;;;;;4983512;28;20228;-73
2022/09/05 02:10:47;;;;;;;0.00;0.00;;;18.70;99.90;;;;;;5008025;28;20616;-72
2022/09/05 02:13:26;;;;;;;0.00;0.00;;;18.70;99.90;;;;;;4958101;28;20583;-73
2022/09/05 02:16:00;;;;;;;0.00;0.00;;;;;;;;;;4992062;28;20277;-72
2022/09/05 02:18:43;;;;;;;0.00;0.00;;;18.60;99.90;;;;;;4988148;28;20203;-72
2022/09/05 02:21:18;;;;;;;0.00;0.00;;;18.50;99.90;;;;;;4985938;28;20205;-72
2022/09/05 02:23:52;;;;;;;0.00;0.00;;;18.50;99.90;;;;;;4984319;28;20215;-73
2022/09/05 02:26:25;;;;;;;0.00;0.00;;;18.40;99.90;;;;;;4985880;28;20228;-73
2022/09/05 02:28:58;;;;;;;0.00;0.00;;;18.40;99.90;;;;;;4989981;28;20223;-72
2022/09/05 02:31:35;;;;;;;0.00;0.00;;;18.30;99.90;;;;;;4988278;28;20263;-72
2022/09/05 02:34:10;;;;;;;0.00;0.00;;;18.20;99.90;;;;;;4985738;28;20239;-73
2022/09/05 02:36:44;;;;;;;0.00;0.00;;;18.20;99.90;;;;;;4986628;28;20263;-73
2022/09/05 02:39:20;;;;;;;0.00;0.00;;;18.10;99.90;;;;;;5007551;28;20194;-72
2022/09/05 02:41:56;;;;;;;0.00;0.00;;;18.10;99.90;;;;;;5010658;28;20733;-73
2022/09/05 02:44:30;;;;;;;0.00;0.00;;;18.00;99.90;;;;;;4991894;28;20226;-73
2022/09/05 02:47:07;;;;;;;0.00;0.00;;;18.00;99.90;;;;;;4993655;28;20215;-72
2022/09/05 02:49:43;;;;;;;0.00;0.00;;;;;;;;;;4993298;28;20211;-73
2022/09/05 02:52:15;;;;;;;0.00;0.00;;;18.00;99.90;;;;;;4989221;28;20291;-72
2022/09/05 02:54:44;;;;;;;0.00;0.00;;;18.00;99.90;;;;;;4993222;28;20228;-72
2022/09/05 02:57:28;;;;;;;0.00;0.00;;;17.90;99.90;;;;;;4986831;28;20204;-71
2022/09/05 03:00:08;;;;;;;0.00;0.00;;;17.90;99.90;;;;;;5013782;28;20203;-72
2022/09/05 03:03:00;;;;;;;0.00;0.00;;;17.80;99.90;;;;;;5005194;28;20266;-72
2022/09/05 03:05:33;;;;;;;0.00;0.00;;;17.80;99.90;;;;;;4985652;28;20764;-72
2022/09/05 03:08:18;;;;;;;0.00;0.00;;;17.70;99.90;;;;;;4984613;28;20200;-72
2022/09/05 03:11:19;;;;;;;0.00;0.00;;;17.70;99.90;;;;;;4988106;28;20201;-72
2022/09/05 03:14:26;;;;;;;0.00;0.00;;;17.60;99.90;;;;;;4987884;28;20319;-72
2022/09/05 03:17:19;;;;;;;0.00;0.00;;;17.50;99.90;;;;;;4969378;28;20212;-72
2022/09/05 03:20:34;;;;;;;0.00;0.00;;;17.40;99.90;;;;;;4993382;28;20211;-72
2022/09/05 03:23:34;;;;;;;0.00;0.00;;;17.30;99.90;;;;;;4990678;28;20201;-72
2022/09/05 03:26:44;;;;;;;0.00;0.00;;;17.30;99.90;;;;;;4999510;28;20264;-72
2022/09/05 03:29:53;;;;;;;0.00;0.00;;;17.30;99.90;;;;;;4988732;28;20215;-72
2022/09/05 03:32:39;;;;;;;0.00;0.00;;;17.30;99.90;;;;;;5001710;28;20208;-72
2022/09/05 03:35:35;;;;;;;0.00;0.00;;;17.30;99.90;;;;;;4987508;28;20240;-72
2022/09/05 03:38:46;;;;;;;0.00;0.00;;;17.20;99.90;;;;;;4989192;28;20289;-72
2022/09/05 03:41:27;;;;;;;0.00;0.00;;;17.20;99.90;;;;;;4989828;28;20209;-72
2022/09/05 03:44:04;;;;;;;0.03;0.03;;;;;;;;;;4986883;28;20204;-72
2022/09/05 03:46:51;;;;;;;0.00;0.00;;;17.20;99.90;;;;;;5008043;28;20201;-72
2022/09/05 03:49:25;;;;;;;0.00;0.00;;;;;;;;;;4986792;28;20259;-72
2022/09/05 03:52:01;;;;;;;0.00;0.00;;;;;;;;;;4991673;28;20203;-71
2022/09/05 03:54:54;;;;;;;0.00;0.00;;;17.10;99.90;;;;;;4986818;28;20231;-72
2022/09/05 03:57:38;;;;;;;0.00;0.00;;;16.90;99.90;;;;;;4989331;28;20205;-72
2022/09/05 04:00:09;;;;;;;0.00;0.00;;;16.90;99.90;;;;;;4990607;28;20219;-71
2022/09/05 04:02:46;;;;;;;0.00;0.00;;;16.80;99.90;;;;;;4990185;28;20193;-73
2022/09/05 04:05:18;;;;;;;0.00;0.00;;;16.80;99.90;;;;;;4984489;28;20274;-72
2022/09/05 04:07:49;;;;;;;0.00;0.00;;;16.80;99.90;;;;;;4992198;28;20207;-72
2022/09/05 04:10:31;;;;;;;0.00;0.00;;;16.70;99.90;;;;;;4995238;28;20204;-72
2022/09/05 04:13:03;;;;;;;0.00;0.00;;;16.70;99.90;;;;;;4992071;28;20693;-71
2022/09/05 04:15:37;;;;;;;0.00;0.00;;;16.70;99.90;;;;;;5007422;28;20725;-72
2022/09/05 04:18:13;;;;;;;0.00;0.00;;;16.70;99.90;;;;;;4996213;28;20204;-71
2022/09/05 04:20:47;;;;;;;0.00;0.00;;;16.80;99.90;;;;;;4990620;28;20292;-71
2022/09/05 04:23:27;;;;;;;0.00;0.00;;;16.80;99.90;;;;;;4992422;28;20746;-72
2022/09/05 04:26:06;;;;;;;0.00;0.00;;;16.80;99.90;;;;;;5011339;28;20212;-72
2022/09/05 04:28:48;;;;;;;0.00;0.00;;;16.80;99.90;;;;;;5015993;28;20203;-72
2022/09/05 04:31:28;;;;;;;0.00;0.00;;;16.80;99.90;;;;;;4991792;28;20208;-72
2022/09/05 04:34:10;;;;;;;0.00;0.00;;;16.70;99.90;;;;;;4992812;28;20195;-73
2022/09/05 04:36:39;;;;;;;0.00;0.00;;;16.70;99.90;;;;;;4992404;28;20208;-72
2022/09/05 04:39:22;;;;;;;0.00;0.00;;;16.80;99.90;;;;;;4993007;28;20219;-71
2022/09/05 04:41:52;;;;;;;0.00;0.00;;;16.70;99.90;;;;;;4991639;28;20205;-72
2022/09/05 04:44:25;;;;;;;0.10;0.10;;;16.80;99.90;;;;;;4993466;28;20235;-72
2022/09/05 04:46:56;;;;;;;0.00;0.00;;;16.80;99.90;;;;;;5011868;28;20199;-72
2022/09/05 04:49:27;;;;;;;0.00;0.00;;;16.70;99.90;;;;;;4992689;28;20197;-72
2022/09/05 04:52:32;;;;;;;0.00;0.00;;;16.70;99.90;;;;;;4989939;28;20197;-72
2022/09/05 04:55:05;;;;;;;0.00;0.00;;;16.70;99.90;;;;;;4991740;28;20294;-72
2022/09/05 04:57:37;;;;;;;0.00;0.00;;;16.70;99.90;;;;;;5008003;28;20267;-72
2022/09/05 05:00:07;;;;;;;0.00;0.00;;;16.70;99.90;;;;;;4995688;28;20197;-72
2022/09/05 05:02:37;;;;;;;0.00;0.00;;;16.70;99.90;;;;;;4992360;28;20216;-72
2022/09/05 05:05:08;;;;;;;0.00;0.00;;;16.70;99.90;;;;;;4992472;28;20224;-72
2022/09/05 05:07:46;;;;;;;0.00;0.00;;;16.70;99.90;;;;;;4991563;28;20196;-72
2022/09/05 05:10:23;;;;;;;0.00;0.00;;;16.70;99.90;;;;;;4994962;28;20211;-72
2022/09/05 05:13:02;;;;;;;0.00;0.00;;;16.80;99.90;;;;;;4984633;28;20251;-72
2022/09/05 05:15:32;;;;;;;0.00;0.00;;;16.80;99.90;;;;;;4990564;28;20276;-72
2022/09/05 05:18:06;;;;;;;0.00;0.00;;;16.80;99.90;;;;;;4997403;28;20653;-72
2022/09/05 05:20:38;;;;;;;0.00;0.00;;;16.80;99.90;;;;;;5004441;28;20232;-72
2022/09/05 05:23:09;;;;;;;0.00;0.00;;;16.90;99.90;;;;;;5003463;28;20196;-72
2022/09/05 05:25:47;;;;;;;0.00;0.00;;;16.90;99.90;;;;;;4988365;28;20307;-72
2022/09/05 05:28:20;;;;;;;0.00;0.00;;;17.00;99.90;;;;;;4988205;28;20244;-73
2022/09/05 05:30:47;;;;;;;0.00;0.00;;;17.00;99.90;;;;;;4989655;28;20284;-73
2022/09/05 05:33:25;;;;;;;0.00;0.00;;;17.00;99.90;;;;;;5005691;28;20189;-73
2022/09/05 05:35:56;;;;;;;0.00;0.00;;;17.00;99.90;;;;;;4993667;28;20248;-72
2022/09/05 05:38:35;;;;;;;0.00;0.00;;;17.00;99.90;;;;;;4985978;28;20189;-73
2022/09/05 05:41:10;;;;;;;0.00;0.00;;;16.90;99.90;;;;;;4994970;28;20672;-73
2022/09/05 05:43:40;;;;;;;0.00;0.00;;;16.90;99.90;;;;;;4987073;28;20239;-73
2022/09/05 05:46:11;;;;;;;0.00;0.00;;;17.00;99.90;;;;;;4991529;28;20226;-73
2022/09/05 05:48:41;;;;;;;0.00;0.00;;;17.00;99.90;;;;;;4985410;28;20193;-72
2022/09/05 05:51:33;;;;;;;0.00;0.00;;;17.00;99.90;;;;;;4999458;28;20231;-73
2022/09/05 05:54:07;;;;;;;0.00;0.00;;;17.10;99.90;;;;;;5009464;28;20200;-73
2022/09/05 05:56:56;;;;;;;0.00;0.00;;;17.10;99.90;;;;;;4996143;28;20202;-72
2022/09/05 05:59:40;;;;;;;0.00;0.00;;;17.30;99.90;;;;;;4989301;28;20303;-73
2022/09/05 06:02:47;;;;;;;0.00;0.00;;;17.30;99.90;;;;;;4988677;28;20296;-73
2022/09/05 06:05:33;;;;;;;0.00;0.00;;;17.40;99.90;;;;;;4988164;28;20224;-73
2022/09/05 06:08:20;;;;;;;0.00;0.00;;;17.50;99.90;;;;;;4994884;28;20208;-73
2022/09/05 06:11:33;;;;;;;0.00;0.00;;;17.60;99.90;;;;;;4993189;28;20200;-73
2022/09/05 06:14:34;;;;;;;0.00;0.00;;;17.70;99.90;;;;;;4984791;28;20233;-72
2022/09/05 06:17:37;;;;;;;0.00;0.00;;;17.80;99.90;;;;;;4989564;28;20220;-73
2022/09/05 06:20:38;;;;;;;0.00;0.00;;;17.80;99.90;;;;;;5005355;28;20250;-73
2022/09/05 06:23:47;;;;;;;0.00;0.00;;;17.90;99.90;;;;;;4999371;28;20204;-73
2022/09/05 06:26:50;;;;;;;0.00;0.00;;;18.00;99.90;;;;;;4988691;28;20312;-73
2022/09/05 06:29:30;;;;;;;0.00;0.00;;;18.20;99.90;;;;;;4990732;28;20219;-73
2022/09/05 06:32:06;;;;;;;0.00;0.00;;;18.50;99.90;;;;;;4984552;28;20207;-73
2022/09/05 06:35:07;;;;;;;0.00;0.00;;;18.70;99.90;;;;;;4997995;28;20326;-72
2022/09/05 06:37:44;;;;;;;0.00;0.00;;;18.90;99.90;;;;;;4994908;28;20208;-72
2022/09/05 06:40:18;;;;;;;0.00;0.00;;;19.10;99.90;;;;;;4992833;28;20222;-72
2022/09/05 06:43:14;;;;;;;0.00;0.00;;;19.20;99.90;;;;;;4989551;28;20235;-74
2022/09/05 06:46:17;;;;;;;0.00;0.00;;;19.30;99.90;;;;;;4992356;28;20259;-73
2022/09/05 06:48:47;;;;;;;0.00;0.00;;;;;;;;;;4957144;28;20208;-72
2022/09/05 06:51:36;;;;;;;0.00;0.00;;;;;;;;;;5012955;28;20203;-72
2022/09/05 06:54:31;;;;;;;0.00;0.00;;;19.60;99.90;;;;;;4992643;28;20200;-73
2022/09/05 06:57:09;;;;;;;0.00;0.00;;;19.60;99.90;;;;;;4992695;28;20300;-72
2022/09/05 07:00:00;;;;;;;0.00;0.00;;;19.70;99.90;;;;;;4994113;28;20202;-72
2022/09/05 07:02:34;;;;;;;0.00;0.00;;;19.80;99.90;;;;;;4985965;28;20201;-73
2022/09/05 07:05:19;;;;;;;0.00;0.00;;;19.90;99.90;;;;;;5008674;28;20300;-73
2022/09/05 07:07:48;;;;;;;0.00;0.00;;;;;;;;;;4993490;28;20247;-73
2022/09/05 07:10:19;;;;;;;0.00;0.00;;;;;;;;;;4994344;28;20219;-74
2022/09/05 07:12:48;;;;;;;0.00;0.00;;;;;;;;;;4989045;28;20209;-74
2022/09/05 07:15:30;;;;;;;0.00;0.00;;;;;;;;;;4995028;28;20232;-73
2022/09/05 07:18:07;;;;;;;0.00;0.00;;;20.70;99.90;;;;;;4994435;28;20204;-73
2022/09/05 07:20:38;;;;;;;0.00;0.00;;;20.70;99.90;;;;;;4988882;28;20219;-73
2022/09/05 07:23:17;;;;;;;0.00;0.00;;;20.80;99.90;;;;;;4991888;28;20345;-73
2022/09/05 07:25:49;;;;;;;0.00;0.00;;;20.80;99.90;;;;;;5007100;28;20231;-73
2022/09/05 07:28:18;;;;;;;0.00;0.00;;;20.90;99.90;;;;;;5003095;28;20212;-73
2022/09/05 07:30:49;;;;;;;0.00;0.00;;;21.10;99.90;;;;;;4990059;28;20189;-73
2022/09/05 07:33:19;;;;;;;0.00;0.00;;;21.20;99.90;;;;;;4986195;28;20209;-73
2022/09/05 07:35:49;;;;;;;0.00;0.00;;;21.10;99.90;;;;;;4993744;28;20224;-74
2022/09/05 07:38:20;;;;;;;0.00;0.00;;;21.20;99.90;;;;;;5005237;28;20205;-73
2022/09/05 07:40:54;;;;;;;0.00;0.00;;;21.20;99.90;;;;;;4988385;28;20208;-73
2022/09/05 07:43:26;;;;;;;0.00;0.00;;;21.30;99.90;;;;;;4994613;28;20262;-74
2022/09/05 07:46:09;;;;;;;0.00;0.00;;;21.50;99.90;;;;;;4994895;28;20216;-76
2022/09/05 07:48:41;;;;;;;0.00;0.00;;;21.60;99.90;;;;;;4994396;28;20776;-73
2022/09/05 07:51:19;;;;;;;0.00;0.00;;;21.60;99.90;;;;;;5001655;28;20204;-74
2022/09/05 07:53:47;;;;;;;0.00;0.00;;;21.70;99.90;;;;;;5002247;28;20247;-73
2022/09/05 07:56:41;;;;;;;0.00;0.00;;;21.80;99.90;;;;;;5016542;28;20222;-74
2022/09/05 07:59:11;;;;;;;0.00;0.00;;;;;;;;;;4996837;28;20299;-73
2022/09/05 08:01:41;;;;;;;0.00;0.00;;;;;;;;;;4996288;28;20204;-72
2022/09/05 08:04:09;;;;;;;0.00;0.00;;;22.10;99.90;;;;;;4997301;28;20209;-73
2022/09/05 08:06:36;;;;;;;0.00;0.00;;;22.30;99.90;;;;;;5022825;28;20199;-73
2022/09/05 08:09:06;;;;;;;0.00;0.00;;;;;;;;;;5001238;28;20215;-73
2022/09/05 08:11:36;;;;;;;0.00;0.00;;;;;;;;;;4998831;28;20263;-73
2022/09/05 08:14:08;;;;;;;0.00;0.00;;;22.40;99.90;;;;;;5000125;28;20208;-73
2022/09/05 08:16:41;;;;;;;0.00;0.00;;;22.50;99.90;;;;;;4992427;28;20254;-74
2022/09/05 08:19:38;;;;;;;0.00;0.00;;;22.70;99.90;;;;;;5000959;28;20217;-74
2022/09/05 08:22:07;;;;;;;0.00;0.00;;;;;;;;;;5007790;28;20197;-73
2022/09/05 08:24:38;;;;;;;0.00;0.00;;;22.80;99.90;;;;;;4999008;28;20277;-74
2022/09/05 08:27:10;;;;;;;0.00;0.00;;;;;;;;;;4994715;28;20203;-73
2022/09/05 08:29:39;;;;;;;0.00;0.00;;;;;;;;;;4992295;28;20252;-74
2022/09/05 08:32:08;;;;;;;0.00;0.00;;;;;;;;;;5000646;28;20637;-73
2022/09/05 08:34:42;;;;;;;0.00;0.00;;;;;;;;;;5008246;28;20363;-74
2022/09/05 08:37:12;;;;;;;0.00;0.00;;;23.40;99.90;;;;;;4997605;28;20227;-73
2022/09/05 08:39:41;;;;;;;0.00;0.00;;;23.60;99.90;;;;;;4998092;28;20228;-74
2022/09/05 08:42:27;;;;;;;0.00;0.00;;;23.70;99.90;;;;;;5011831;28;20682;-73
2022/09/05 08:45:10;;;;;;;0.00;0.00;;;23.70;99.90;;;;;;5007622;28;20235;-74
2022/09/05 08:47:51;;;;;;;0.00;0.00;;;23.80;99.90;;;;;;5011040;28;20224;-74
2022/09/05 08:50:49;;;;;;;0.00;0.00;;;23.90;99.90;;;;;;4996537;28;20208;-72
2022/09/05 08:53:26;;;;;;;0.00;0.00;;;23.90;99.90;;;;;;4999619;28;20286;-73
2022/09/05 08:55:58;;;;;;;0.00;0.00;;;24.00;99.90;;;;;;4993540;28;20673;-73
2022/09/05 08:58:45;;;;;;;0.00;0.00;;;24.20;99.90;;;;;;4993899;28;20204;-73
2022/09/05 09:01:17;;;;;;;0.00;0.00;;;24.30;99.90;;;;;;4998126;28;20240;-74
2022/09/05 09:04:03;;;;;;;0.00;0.00;;;24.50;99.90;;;;;;4998436;28;20200;-74
2022/09/05 09:06:57;;;;;;;0.00;0.00;;;24.60;99.90;;;;;;4996240;28;20196;-73
2022/09/05 09:09:38;;;;;;;0.00;0.00;;;24.60;99.90;;;;;;4993425;28;20201;-73
2022/09/05 09:12:14;;;;;;;0.00;0.00;;;24.60;99.90;;;;;;5005059;28;20204;-73
2022/09/05 09:14:56;;;;;;;0.00;0.00;;;24.70;99.90;;;;;;5010831;28;20263;-73
2022/09/05 09:17:40;;;;;;;0.00;0.00;;;24.70;99.90;;;;;;4996564;28;20274;-73
2022/09/05 09:20:21;;;;;;;0.00;0.00;;;24.70;99.90;;;;;;5012484;28;20280;-73
2022/09/05 09:22:58;;;;;;;0.00;0.00;;;24.80;99.90;;;;;;4990319;28;20215;-74
2022/09/05 09:25:29;;;;;;;0.00;0.00;;;24.90;99.90;;;;;;4986330;28;20232;-73
2022/09/05 09:28:27;;;;;;;0.00;0.00;;;25.10;99.90;;;;;;5010134;28;20200;-74
2022/09/05 09:31:03;;;;;;;0.00;0.00;;;25.20;99.90;;;;;;4986695;28;20305;-74
2022/09/05 09:33:41;;;;;;;0.00;0.00;;;25.30;99.90;;;;;;5013246;28;20275;-73
2022/09/05 09:36:37;;;;;;;0.00;0.00;;;25.30;99.90;;;;;;4994803;28;20266;-74
2022/09/05 09:39:16;;;;;;;0.00;0.00;;;25.40;99.90;;;;;;4990497;28;20201;-73
2022/09/05 09:41:55;;;;;;;0.00;0.00;;;25.60;99.90;;;;;;4993050;28;20200;-74
2022/09/05 09:45:04;;;;;;;0.00;0.00;;;25.80;99.90;;;;;;4992124;28;20220;-74
2022/09/05 09:47:59;;;;;;;0.00;0.00;;;25.90;99.90;;;;;;5002797;28;20220;-74
2022/09/05 09:50:42;;;;;;;0.00;0.00;;;25.90;99.90;;;;;;4990900;28;20193;-73
2022/09/05 09:53:28;;;;;;;0.00;0.00;;;25.90;99.90;;;;;;4994025;28;20267;-74
2022/09/05 09:56:31;;;;;;;0.00;0.00;;;25.90;99.90;;;;;;4992575;28;20212;-74
2022/09/05 09:59:11;;;;;;;0.00;0.00;;;25.80;99.90;;;;;;5010727;28;20200;-75
2022/09/05 10:01:51;;;;;;;0.00;0.00;;;25.90;99.90;;;;;;5003823;28;20196;-73
2022/09/05 10:04:43;;;;;;;0.00;0.00;;;25.90;99.90;;;;;;4996314;28;20254;-74
2022/09/05 10:07:39;;;;;;;0.00;0.00;;;26.10;99.90;;;;;;5010026;28;20211;-73
2022/09/05 10:10:39;;;;;;;0.00;0.00;;;26.20;99.90;;;;;;4995296;28;20197;-73
2022/09/05 10:13:23;;;;;;;0.00;0.00;;;26.10;99.90;;;;;;4980199;28;20197;-74
2022/09/05 10:16:31;;;;;;;0.00;0.00;;;25.90;99.90;;;;;;5000301;28;20220;-73
2022/09/05 10:19:34;;;;;;;0.00;0.00;;;26.00;99.90;;;;;;5001744;28;20207;-74
2022/09/05 10:22:30;;;;;;;0.00;0.00;;;25.90;99.90;;;;;;4990593;28;20209;-73
2022/09/05 10:25:37;;;;;;;0.00;0.00;;;26.20;99.90;;;;;;4990353;28;20235;-73
2022/09/05 10:28:07;;;;;;;0.00;0.00;;;26.30;99.90;;;;;;5006534;28;20267;-74
2022/09/05 10:30:57;;;;;;;0.00;0.00;;;26.40;99.90;;;;;;4994203;28;20209;-74
2022/09/05 10:33:39;;;;;;;0.00;0.00;;;26.50;99.90;;;;;;4991702;28;20360;-75
2022/09/05 10:36:26;;;;;;;0.00;0.00;;;26.50;99.90;;;;;;4993491;28;20221;-74
2022/09/05 10:39:07;;;;;;;0.00;0.00;;;26.50;99.90;;;;;;4995834;28;20268;-74
2022/09/05 10:41:48;;;;;;;0.00;0.00;;;26.40;99.90;;;;;;4990617;28;20221;-74
2022/09/05 10:44:23;;;;;;;0.00;0.00;;;26.40;99.90;;;;;;4997226;28;20259;-73
2022/09/05 10:47:04;;;;;;;0.00;0.00;;;26.60;99.90;;;;;;4995688;28;20196;-73
2022/09/05 10:49:37;;;;;;;0.00;0.00;;;26.60;99.90;;;;;;5001571;28;20200;-73
2022/09/05 10:52:11;;;;;;;0.00;0.00;;;26.70;99.90;;;;;;4996153;28;20201;-72
2022/09/05 10:54:54;;;;;;;0.00;0.00;;;26.80;99.90;;;;;;4996671;28;20219;-73
2022/09/05 10:57:36;;;;;;;0.00;0.00;;;26.70;99.90;;;;;;4994429;28;20271;-73
2022/09/05 11:00:19;;;;;;;0.00;0.00;;;26.80;99.90;;;;;;4995461;28;20200;-74
2022/09/05 11:02:48;;;;;;;0.00;0.00;;;26.90;99.90;;;;;;4990638;28;20200;-73
2022/09/05 11:05:23;;;;;;;0.00;0.00;;;27.10;99.90;;;;;;4994677;28;20228;-73
2022/09/05 11:08:01;;;;;;;0.00;0.00;;;27.20;99.90;;;;;;4994382;28;20196;-73
2022/09/05 11:10:34;;;;;;;0.00;0.00;;;27.20;99.90;;;;;;4988674;28;20259;-73
2022/09/05 11:13:28;;;;;;;0.00;0.00;;;27.20;99.90;;;;;;4996136;28;20200;-73
2022/09/05 11:16:01;;;;;;;0.00;0.00;;;27.30;99.90;;;;;;4996758;28;20225;-73
2022/09/05 11:18:49;;;;;;;0.00;0.00;;;27.40;99.90;;;;;;4986320;28;20212;-74
2022/09/05 11:21:24;;;;;;;0.00;0.00;;;27.40;99.90;;;;;;5002187;28;20205;-74
2022/09/05 11:23:56;;;;;;;0.00;0.00;;;27.30;99.90;;;;;;4994018;28;20214;-73
2022/09/05 11:26:44;;;;;;;0.00;0.00;;;27.20;99.90;;;;;;4997535;28;20320;-74
2022/09/05 11:29:16;;;;;;;0.00;0.00;;;27.20;99.90;;;;;;5002449;28;20294;-73
2022/09/05 11:31:58;;;;;;;0.00;0.00;;;27.30;99.90;;;;;;4996939;28;20219;-74
2022/09/05 11:35:05;;;;;;;0.00;0.00;;;27.40;99.90;;;;;;4996577;28;20220;-73
2022/09/05 11:38:06;;;;;;;0.00;0.00;;;27.50;99.90;;;;;;5007829;28;20278;-74
2022/09/05 11:40:50;;;;;;;0.00;0.00;;;27.70;99.90;;;;;;5000770;28;20207;-74
2022/09/05 11:43:49;;;;;;;0.00;0.00;;;27.90;99.90;;;;;;4995070;28;20216;-74
2022/09/05 11:46:31;;;;;;;0.00;0.00;;;28.00;99.90;;;;;;4992542;28;20256;-73
2022/09/05 11:49:25;;;;;;;0.00;0.00;;;27.90;99.90;;;;;;5007401;28;20307;-74
2022/09/05 11:52:35;;;;;;;0.00;0.00;;;27.90;99.90;;;;;;4999468;28;20203;-74
2022/09/05 11:55:31;;;;;;;0.00;0.00;;;27.80;99.90;;;;;;5007013;28;20300;-74
2022/09/05 11:58:20;;;;;;;0.00;0.00;;;27.80;99.90;;;;;;4997398;28;20227;-73
2022/09/05 12:00:52;;;;;;;0.00;0.00;;;27.80;99.90;;;;;;4998169;28;20201;-74
2022/09/05 12:03:44;;;;;;;0.00;0.00;;;27.80;99.90;;;;;;4997613;28;20287;-74
2022/09/05 12:06:35;;;;;;;0.00;0.00;;;27.80;99.90;;;;;;4999399;28;20228;-74
2022/09/05 12:09:37;;;;;;;0.00;0.00;;;27.90;99.90;;;;;;5006521;28;20230;-74
2022/09/05 12:12:25;;;;;;;0.00;0.00;;;27.80;99.90;;;;;;4991975;28;20208;-73
2022/09/05 12:15:07;;;;;;;0.00;0.00;;;27.70;99.90;;;;;;5001412;28;20271;-74
2022/09/05 12:17:45;;;;;;;0.00;0.00;;;27.60;99.90;;;;;;5013190;28;20203;-74
2022/09/05 12:20:18;;;;;;;0.00;0.00;;;27.60;99.90;;;;;;5013759;28;20226;-74
2022/09/05 12:22:53;;;;;;;0.00;0.00;;;27.60;99.90;;;;;;5007053;28;20200;-74
2022/09/05 12:25:29;;;;;;;0.00;0.00;;;27.60;99.90;;;;;;5014736;28;20307;-73
2022/09/05 12:27:59;;;;;;;0.00;0.00;;;27.50;99.90;;;;;;4996338;28;20259;-74
2022/09/05 12:30:30;;;;;;;0.00;0.00;;;27.40;99.90;;;;;;5009698;28;20193;-73
2022/09/05 12:33:02;;;;;;;0.00;0.00;;;27.40;99.90;;;;;;4993233;28;20197;-74
2022/09/05 12:35:37;;;;;;;0.00;0.00;;;27.40;99.90;;;;;;5004357;28;20287;-73
2022/09/05 12:38:21;;;;;;;0.00;0.00;;;27.40;99.90;;;;;;4995857;28;20277;-74
2022/09/05 12:40:56;;;;;;;0.00;0.00;;;27.40;99.90;;;;;;4990832;28;20219;-73
2022/09/05 12:43:27;;;;;;;0.00;0.00;;;27.40;99.90;;;;;;4996491;28;20238;-73
2022/09/05 12:45:59;;;;;;;0.00;0.00;;;27.40;99.90;;;;;;5000138;28;20212;-74
2022/09/05 12:48:32;;;;;;;0.00;0.00;;;27.30;99.90;;;;;;4990322;28;20205;-74
2022/09/05 12:51:04;;;;;;;0.00;0.00;;;27.30;99.90;;;;;;5006598;28;20207;-74
2022/09/05 12:53:42;;;;;;;0.00;0.00;;;27.30;99.90;;;;;;4995940;28;20205;-74
2022/09/05 12:56:18;;;;;;;0.00;0.00;;;27.20;99.90;;;;;;5017189;28;20218;-75
2022/09/05 12:58:51;;;;;;;0.00;0.00;;;27.10;99.90;;;;;;4996137;28;20200;-75
2022/09/05 13:01:27;;;;;;;0.00;0.00;;;27.00;99.90;;;;;;4996136;28;20228;-74
2022/09/05 13:04:00;;;;;;;0.00;0.00;;;26.90;99.90;;;;;;4994576;28;20236;-74
2022/09/05 13:06:33;;;;;;;0.00;0.00;;;26.90;99.90;;;;;;4996619;28;20231;-74
2022/09/05 13:09:05;;;;;;;0.00;0.00;;;26.90;99.90;;;;;;4993389;28;20207;-74
2022/09/05 13:11:41;;;;;;;0.00;0.00;;;26.90;99.90;;;;;;4992323;28;20200;-74
2022/09/05 13:14:18;;;;;;;0.00;0.00;;;26.80;99.90;;;;;;4990749;28;20227;-74
2022/09/05 13:16:50;;;;;;;0.00;0.00;;;26.80;99.90;;;;;;4997413;28;20232;-74
2022/09/05 13:19:33;;;;;;;0.00;0.00;;;26.90;99.90;;;;;;5007523;28;20262;-74
2022/09/05 13:22:02;;;;;;;0.00;0.00;;;26.90;99.90;;;;;;4988292;28;20216;-74
2022/09/05 13:24:33;;;;;;;0.00;0.00;;;26.90;99.90;;;;;;4994399;28;20220;-74
2022/09/05 13:27:12;;;;;;;0.00;0.00;;;26.80;99.90;;;;;;4990645;28;20200;-74
2022/09/05 13:29:52;;;;;;;0.00;0.00;;;26.70;99.90;;;;;;4992355;28;20295;-74
2022/09/05 13:32:29;;;;;;;0.00;0.00;;;26.70;99.90;;;;;;5003523;28;20199;-74
2022/09/05 13:35:03;;;;;;;0.00;0.00;;;26.60;99.90;;;;;;4994486;28;20282;-74
2022/09/05 13:37:35;;;;;;;0.00;0.00;;;26.60;99.90;;;;;;5000784;28;20244;-72
2022/09/05 13:40:08;;;;;;;0.00;0.00;;;26.60;99.90;;;;;;5006203;28;20200;-74
2022/09/05 13:42:43;;;;;;;0.00;0.00;;;26.60;99.90;;;;;;5001094;28;20271;-73
2022/09/05 13:45:17;;;;;;;0.00;0.00;;;26.60;99.90;;;;;;5014897;28;20247;-74
2022/09/05 13:48:03;;;;;;;0.00;0.00;;;26.60;99.90;;;;;;4992754;28;20197;-73
2022/09/05 13:50:36;;;;;;;0.00;0.00;;;26.60;99.90;;;;;;5009746;28;20196;-74
2022/09/05 13:53:14;;;;;;;0.00;0.00;;;26.60;99.90;;;;;;4999465;28;20287;-74
2022/09/05 13:55:44;;;;;;;0.00;0.00;;;26.50;99.90;;;;;;5008950;28;20220;-73
2022/09/05 13:58:19;;;;;;;0.00;0.00;;;26.60;99.90;;;;;;4998736;28;20234;-74
2022/09/05 14:01:16;;;;;;;0.00;0.00;;;26.60;99.90;;;;;;4995645;28;20196;-74
2022/09/05 14:04:29;;;;;;;0.00;0.00;;;26.60;99.90;;;;;;4959295;28;20313;-74